Cresson, Texas
Current Conditions -  °F | °C
As of 7:55 PM on Thursday 18 Dec 2014 (Local Time) from KGDJ Reporting Station
Overcast Overcast  
Wind Chill: 49°   Ceiling: 1900
Heat Index: 49°   Visibility: 10mi
Dew Point: 44°   Wind: 0mph
Humidity: 83%   Direction: NA
Pressure: 30.17"   Gusts: NA
Location:  32.53°N, 97.62°W
Report Text: KGDJ 190155Z AUTO 00000KT 10SM OVC019 10/07 A3017 RMK AO2 T00960068
Loading
Personal Weather Stations






























Interactive Weather Map New forecast layout! Learn more

10-Day Weather Forecast

Advertisements
Track Severe Weather on mobile